sensor_id;sensor_type;location;lat;lon;timestamp;P1;durP1;ratioP1;P2;durP2;ratioP2
61685;SDS011;47592;45.904;8.978;2023-12-29T00:00:39;18.27;;;13.23;;
61685;SDS011;47592;45.904;8.978;2023-12-29T00:03:07;18.50;;;12.85;;
61685;SDS011;47592;45.904;8.978;2023-12-29T00:05:32;18.35;;;13.38;;
61685;SDS011;47592;45.904;8.978;2023-12-29T00:07:58;18.42;;;13.23;;
61685;SDS011;47592;45.904;8.978;2023-12-29T00:10:23;16.10;;;12.68;;
61685;SDS011;47592;45.904;8.978;2023-12-29T00:12:49;17.80;;;12.75;;
61685;SDS011;47592;45.904;8.978;2023-12-29T00:15:17;14.98;;;12.05;;
61685;SDS011;47592;45.904;8.978;2023-12-29T00:17:43;16.00;;;12.27;;
61685;SDS011;47592;45.904;8.978;2023-12-29T00:20:09;18.02;;;12.20;;
61685;SDS011;47592;45.904;8.978;2023-12-29T00:22:36;18.98;;;13.27;;
61685;SDS011;47592;45.904;8.978;2023-12-29T00:25:01;17.95;;;12.85;;
61685;SDS011;47592;45.904;8.978;2023-12-29T00:27:27;17.10;;;13.13;;
61685;SDS011;47592;45.904;8.978;2023-12-29T00:29:55;18.77;;;12.57;;
61685;SDS011;47592;45.904;8.978;2023-12-29T00:32:23;18.00;;;13.05;;
61685;SDS011;47592;45.904;8.978;2023-12-29T00:34:48;18.98;;;13.40;;
61685;SDS011;47592;45.904;8.978;2023-12-29T00:37:16;17.48;;;12.13;;
61685;SDS011;47592;45.904;8.978;2023-12-29T00:39:41;17.42;;;12.27;;
61685;SDS011;47592;45.904;8.978;2023-12-29T00:42:09;17.35;;;12.05;;
61685;SDS011;47592;45.904;8.978;2023-12-29T00:44:37;20.27;;;12.63;;
61685;SDS011;47592;45.904;8.978;2023-12-29T00:47:03;16.50;;;12.07;;
61685;SDS011;47592;45.904;8.978;2023-12-29T00:49:30;17.92;;;11.48;;
61685;SDS011;47592;45.904;8.978;2023-12-29T00:51:56;18.60;;;12.45;;
61685;SDS011;47592;45.904;8.978;2023-12-29T00:54:23;17.95;;;12.77;;
61685;SDS011;47592;45.904;8.978;2023-12-29T00:56:51;15.68;;;11.10;;
61685;SDS011;47592;45.904;8.978;2023-12-29T00:59:19;17.83;;;11.98;;
61685;SDS011;47592;45.904;8.978;2023-12-29T01:01:45;16.90;;;11.80;;
61685;SDS011;47592;45.904;8.978;2023-12-29T01:04:10;16.20;;;11.80;;
61685;SDS011;47592;45.904;8.978;2023-12-29T01:06:36;16.08;;;11.77;;
61685;SDS011;47592;45.904;8.978;2023-12-29T01:09:03;19.58;;;12.65;;
61685;SDS011;47592;45.904;8.978;2023-12-29T01:11:29;18.10;;;12.80;;
61685;SDS011;47592;45.904;8.978;2023-12-29T01:13:57;16.80;;;11.23;;
61685;SDS011;47592;45.904;8.978;2023-12-29T01:16:25;17.95;;;11.63;;
61685;SDS011;47592;45.904;8.978;2023-12-29T01:18:50;16.15;;;11.45;;
61685;SDS011;47592;45.904;8.978;2023-12-29T01:21:18;15.63;;;11.27;;
61685;SDS011;47592;45.904;8.978;2023-12-29T01:23:43;16.42;;;11.50;;
61685;SDS011;47592;45.904;8.978;2023-12-29T01:26:09;16.60;;;11.30;;
61685;SDS011;47592;45.904;8.978;2023-12-29T01:28:34;14.48;;;11.15;;
61685;SDS011;47592;45.904;8.978;2023-12-29T01:30:59;16.55;;;10.95;;
61685;SDS011;47592;45.904;8.978;2023-12-29T01:33:25;17.35;;;11.20;;
61685;SDS011;47592;45.904;8.978;2023-12-29T01:35:53;15.23;;;10.85;;
61685;SDS011;47592;45.904;8.978;2023-12-29T01:38:18;16.27;;;11.43;;
61685;SDS011;47592;45.904;8.978;2023-12-29T01:40:47;16.60;;;11.00;;
61685;SDS011;47592;45.904;8.978;2023-12-29T01:43:12;14.52;;;10.90;;
61685;SDS011;47592;45.904;8.978;2023-12-29T01:45:38;17.83;;;11.68;;
61685;SDS011;47592;45.904;8.978;2023-12-29T01:48:05;16.10;;;11.23;;
61685;SDS011;47592;45.904;8.978;2023-12-29T01:50:31;15.45;;;11.65;;
61685;SDS011;47592;45.904;8.978;2023-12-29T01:52:57;18.27;;;11.00;;
61685;SDS011;47592;45.904;8.978;2023-12-29T01:55:26;16.40;;;11.30;;
61685;SDS011;47592;45.904;8.978;2023-12-29T01:57:51;17.23;;;12.40;;
61685;SDS011;47592;45.904;8.978;2023-12-29T02:00:19;16.42;;;11.52;;
61685;SDS011;47592;45.904;8.978;2023-12-29T02:02:46;17.50;;;12.10;;
61685;SDS011;47592;45.904;8.978;2023-12-29T02:05:15;16.73;;;11.32;;
61685;SDS011;47592;45.904;8.978;2023-12-29T02:07:42;16.95;;;11.82;;
61685;SDS011;47592;45.904;8.978;2023-12-29T02:10:07;17.25;;;12.00;;
61685;SDS011;47592;45.904;8.978;2023-12-29T02:12:41;15.60;;;11.20;;
61685;SDS011;47592;45.904;8.978;2023-12-29T02:15:09;14.85;;;10.65;;
61685;SDS011;47592;45.904;8.978;2023-12-29T02:17:45;15.68;;;11.23;;
61685;SDS011;47592;45.904;8.978;2023-12-29T02:20:15;15.18;;;10.63;;
61685;SDS011;47592;45.904;8.978;2023-12-29T02:22:41;15.50;;;10.27;;
61685;SDS011;47592;45.904;8.978;2023-12-29T02:25:06;16.48;;;11.20;;
61685;SDS011;47592;45.904;8.978;2023-12-29T02:27:43;15.20;;;11.60;;
61685;SDS011;47592;45.904;8.978;2023-12-29T02:32:43;16.30;;;10.25;;
61685;SDS011;47592;45.904;8.978;2023-12-29T02:35:11;15.25;;;10.98;;
61685;SDS011;47592;45.904;8.978;2023-12-29T02:37:38;13.75;;;9.93;;
61685;SDS011;47592;45.904;8.978;2023-12-29T02:40:04;14.88;;;10.88;;
61685;SDS011;47592;45.904;8.978;2023-12-29T02:42:32;15.48;;;10.15;;
61685;SDS011;47592;45.904;8.978;2023-12-29T02:45:00;14.68;;;10.60;;
61685;SDS011;47592;45.904;8.978;2023-12-29T02:47:26;15.43;;;10.13;;
61685;SDS011;47592;45.904;8.978;2023-12-29T02:49:51;15.45;;;10.75;;
61685;SDS011;47592;45.904;8.978;2023-12-29T02:52:19;15.07;;;9.20;;
61685;SDS011;47592;45.904;8.978;2023-12-29T02:54:47;13.23;;;9.75;;
61685;SDS011;47592;45.904;8.978;2023-12-29T02:57:13;14.20;;;9.52;;
61685;SDS011;47592;45.904;8.978;2023-12-29T02:59:38;14.70;;;10.38;;
61685;SDS011;47592;45.904;8.978;2023-12-29T03:02:03;16.25;;;10.30;;
61685;SDS011;47592;45.904;8.978;2023-12-29T03:04:31;16.67;;;10.48;;
61685;SDS011;47592;45.904;8.978;2023-12-29T03:06:59;15.95;;;10.25;;
61685;SDS011;47592;45.904;8.978;2023-12-29T03:09:24;15.45;;;10.82;;
61685;SDS011;47592;45.904;8.978;2023-12-29T03:11:50;13.88;;;9.43;;
61685;SDS011;47592;45.904;8.978;2023-12-29T03:14:20;14.85;;;10.23;;
61685;SDS011;47592;45.904;8.978;2023-12-29T03:16:45;14.52;;;9.90;;
61685;SDS011;47592;45.904;8.978;2023-12-29T03:19:11;16.65;;;10.82;;
61685;SDS011;47592;45.904;8.978;2023-12-29T03:21:38;15.18;;;9.77;;
61685;SDS011;47592;45.904;8.978;2023-12-29T03:24:04;14.25;;;10.30;;
61685;SDS011;47592;45.904;8.978;2023-12-29T03:26:29;16.13;;;10.48;;
61685;SDS011;47592;45.904;8.978;2023-12-29T03:28:55;14.50;;;10.77;;
61685;SDS011;47592;45.904;8.978;2023-12-29T03:31:23;15.23;;;10.65;;
61685;SDS011;47592;45.904;8.978;2023-12-29T03:33:51;18.60;;;11.52;;
61685;SDS011;47592;45.904;8.978;2023-12-29T03:36:16;15.20;;;10.35;;
61685;SDS011;47592;45.904;8.978;2023-12-29T03:38:41;14.35;;;10.05;;
61685;SDS011;47592;45.904;8.978;2023-12-29T03:41:07;14.25;;;10.32;;
61685;SDS011;47592;45.904;8.978;2023-12-29T03:43:32;14.82;;;10.63;;
61685;SDS011;47592;45.904;8.978;2023-12-29T03:45:57;18.15;;;11.30;;
61685;SDS011;47592;45.904;8.978;2023-12-29T03:48:23;13.80;;;9.63;;
61685;SDS011;47592;45.904;8.978;2023-12-29T03:50:48;14.15;;;10.10;;
61685;SDS011;47592;45.904;8.978;2023-12-29T03:53:16;13.65;;;10.02;;
61685;SDS011;47592;45.904;8.978;2023-12-29T03:55:42;13.23;;;9.30;;
61685;SDS011;47592;45.904;8.978;2023-12-29T03:58:07;14.45;;;10.02;;
61685;SDS011;47592;45.904;8.978;2023-12-29T04:00:32;16.05;;;10.18;;
61685;SDS011;47592;45.904;8.978;2023-12-29T04:02:58;14.15;;;9.95;;
61685;SDS011;47592;45.904;8.978;2023-12-29T04:05:25;13.48;;;9.23;;
61685;SDS011;47592;45.904;8.978;2023-12-29T04:07:51;13.95;;;9.77;;
61685;SDS011;47592;45.904;8.978;2023-12-29T04:10:16;14.43;;;9.60;;
61685;SDS011;47592;45.904;8.978;2023-12-29T04:12:42;14.20;;;9.40;;
61685;SDS011;47592;45.904;8.978;2023-12-29T04:15:07;15.30;;;9.88;;
61685;SDS011;47592;45.904;8.978;2023-12-29T04:17:33;14.88;;;10.07;;
61685;SDS011;47592;45.904;8.978;2023-12-29T04:19:58;13.70;;;8.93;;
61685;SDS011;47592;45.904;8.978;2023-12-29T04:22:26;13.07;;;8.93;;
61685;SDS011;47592;45.904;8.978;2023-12-29T04:24:54;13.00;;;8.93;;
61685;SDS011;47592;45.904;8.978;2023-12-29T04:27:21;14.18;;;8.60;;
61685;SDS011;47592;45.904;8.978;2023-12-29T04:29:52;12.18;;;7.82;;
61685;SDS011;47592;45.904;8.978;2023-12-29T04:32:19;12.40;;;7.95;;
61685;SDS011;47592;45.904;8.978;2023-12-29T04:34:45;12.85;;;7.93;;
61685;SDS011;47592;45.904;8.978;2023-12-29T04:37:10;14.45;;;8.48;;
61685;SDS011;47592;45.904;8.978;2023-12-29T04:39:39;11.77;;;8.20;;
61685;SDS011;47592;45.904;8.978;2023-12-29T04:42:05;14.63;;;8.30;;
61685;SDS011;47592;45.904;8.978;2023-12-29T04:44:30;12.65;;;8.05;;
61685;SDS011;47592;45.904;8.978;2023-12-29T04:46:55;13.70;;;8.45;;
61685;SDS011;47592;45.904;8.978;2023-12-29T04:49:23;11.45;;;8.52;;
61685;SDS011;47592;45.904;8.978;2023-12-29T04:51:51;15.82;;;8.40;;
61685;SDS011;47592;45.904;8.978;2023-12-29T04:54:17;12.75;;;8.70;;
61685;SDS011;47592;45.904;8.978;2023-12-29T04:56:42;15.60;;;8.57;;
61685;SDS011;47592;45.904;8.978;2023-12-29T04:59:08;13.80;;;8.52;;
61685;SDS011;47592;45.904;8.978;2023-12-29T05:01:36;12.57;;;8.50;;
61685;SDS011;47592;45.904;8.978;2023-12-29T05:04:03;11.77;;;8.35;;
61685;SDS011;47592;45.904;8.978;2023-12-29T05:06:29;11.15;;;8.60;;
61685;SDS011;47592;45.904;8.978;2023-12-29T05:08:54;13.50;;;8.70;;
61685;SDS011;47592;45.904;8.978;2023-12-29T05:11:19;13.85;;;8.57;;
61685;SDS011;47592;45.904;8.978;2023-12-29T05:13:47;15.70;;;8.85;;
61685;SDS011;47592;45.904;8.978;2023-12-29T05:16:17;13.88;;;9.13;;
61685;SDS011;47592;45.904;8.978;2023-12-29T05:18:45;11.85;;;8.40;;
61685;SDS011;47592;45.904;8.978;2023-12-29T05:21:16;13.88;;;9.40;;
61685;SDS011;47592;45.904;8.978;2023-12-29T05:23:45;12.50;;;9.32;;
61685;SDS011;47592;45.904;8.978;2023-12-29T05:28:42;13.25;;;8.43;;
61685;SDS011;47592;45.904;8.978;2023-12-29T05:31:08;13.73;;;9.15;;
61685;SDS011;47592;45.904;8.978;2023-12-29T05:33:34;13.00;;;9.43;;
61685;SDS011;47592;45.904;8.978;2023-12-29T05:36:05;13.50;;;9.13;;
61685;SDS011;47592;45.904;8.978;2023-12-29T05:38:32;13.18;;;8.70;;
61685;SDS011;47592;45.904;8.978;2023-12-29T05:41:04;13.20;;;9.33;;
61685;SDS011;47592;45.904;8.978;2023-12-29T05:43:32;12.45;;;8.82;;
61685;SDS011;47592;45.904;8.978;2023-12-29T05:45:58;13.65;;;8.48;;
61685;SDS011;47592;45.904;8.978;2023-12-29T05:48:27;12.45;;;9.13;;
61685;SDS011;47592;45.904;8.978;2023-12-29T05:50:52;12.88;;;8.77;;
61685;SDS011;47592;45.904;8.978;2023-12-29T05:53:18;13.10;;;8.43;;
61685;SDS011;47592;45.904;8.978;2023-12-29T05:55:44;11.68;;;8.75;;
61685;SDS011;47592;45.904;8.978;2023-12-29T05:58:10;15.20;;;9.43;;
61685;SDS011;47592;45.904;8.978;2023-12-29T06:00:38;12.57;;;8.63;;
61685;SDS011;47592;45.904;8.978;2023-12-29T06:03:11;12.85;;;8.57;;
61685;SDS011;47592;45.904;8.978;2023-12-29T06:05:39;14.27;;;8.73;;
61685;SDS011;47592;45.904;8.978;2023-12-29T06:08:07;11.85;;;8.68;;
61685;SDS011;47592;45.904;8.978;2023-12-29T06:10:33;13.02;;;8.50;;
61685;SDS011;47592;45.904;8.978;2023-12-29T06:12:59;13.15;;;8.77;;
61685;SDS011;47592;45.904;8.978;2023-12-29T06:15:26;11.48;;;8.30;;
61685;SDS011;47592;45.904;8.978;2023-12-29T06:17:51;12.07;;;8.20;;
61685;SDS011;47592;45.904;8.978;2023-12-29T06:20:17;12.70;;;9.23;;
61685;SDS011;47592;45.904;8.978;2023-12-29T06:22:42;13.93;;;8.68;;
61685;SDS011;47592;45.904;8.978;2023-12-29T06:25:09;13.63;;;8.65;;
61685;SDS011;47592;45.904;8.978;2023-12-29T06:27:36;13.45;;;8.73;;
61685;SDS011;47592;45.904;8.978;2023-12-29T06:30:06;12.27;;;9.40;;
61685;SDS011;47592;45.904;8.978;2023-12-29T06:32:32;12.55;;;8.70;;
61685;SDS011;47592;45.904;8.978;2023-12-29T06:34:58;11.77;;;8.75;;
61685;SDS011;47592;45.904;8.978;2023-12-29T06:37:23;12.45;;;8.90;;
61685;SDS011;47592;45.904;8.978;2023-12-29T06:39:48;13.98;;;9.10;;
61685;SDS011;47592;45.904;8.978;2023-12-29T06:42:14;14.70;;;8.50;;
61685;SDS011;47592;45.904;8.978;2023-12-29T06:44:42;12.40;;;8.57;;
61685;SDS011;47592;45.904;8.978;2023-12-29T06:47:07;12.93;;;8.85;;
61685;SDS011;47592;45.904;8.978;2023-12-29T06:49:37;12.70;;;8.77;;
61685;SDS011;47592;45.904;8.978;2023-12-29T06:52:10;12.95;;;8.93;;
61685;SDS011;47592;45.904;8.978;2023-12-29T06:54:35;13.15;;;8.60;;
61685;SDS011;47592;45.904;8.978;2023-12-29T06:57:01;14.20;;;9.35;;
61685;SDS011;47592;45.904;8.978;2023-12-29T06:59:26;13.27;;;9.15;;
61685;SDS011;47592;45.904;8.978;2023-12-29T07:01:52;13.75;;;8.90;;
61685;SDS011;47592;45.904;8.978;2023-12-29T07:04:24;12.32;;;8.82;;
61685;SDS011;47592;45.904;8.978;2023-12-29T07:06:52;13.20;;;8.77;;
61685;SDS011;47592;45.904;8.978;2023-12-29T07:09:20;12.50;;;9.10;;
61685;SDS011;47592;45.904;8.978;2023-12-29T07:11:48;12.25;;;8.40;;
61685;SDS011;47592;45.904;8.978;2023-12-29T07:14:16;14.15;;;9.05;;
61685;SDS011;47592;45.904;8.978;2023-12-29T07:16:42;12.75;;;8.85;;
61685;SDS011;47592;45.904;8.978;2023-12-29T07:19:07;12.50;;;9.07;;
61685;SDS011;47592;45.904;8.978;2023-12-29T07:21:35;13.65;;;9.20;;
61685;SDS011;47592;45.904;8.978;2023-12-29T07:24:03;13.60;;;9.10;;
61685;SDS011;47592;45.904;8.978;2023-12-29T07:26:33;15.05;;;9.18;;
61685;SDS011;47592;45.904;8.978;2023-12-29T07:28:59;13.30;;;8.25;;
61685;SDS011;47592;45.904;8.978;2023-12-29T07:31:26;14.30;;;9.02;;
61685;SDS011;47592;45.904;8.978;2023-12-29T07:33:52;18.30;;;9.18;;
61685;SDS011;47592;45.904;8.978;2023-12-29T07:36:17;12.80;;;8.60;;
61685;SDS011;47592;45.904;8.978;2023-12-29T07:38:43;12.80;;;8.63;;
61685;SDS011;47592;45.904;8.978;2023-12-29T07:41:08;13.93;;;8.82;;
61685;SDS011;47592;45.904;8.978;2023-12-29T07:43:34;13.38;;;8.73;;
61685;SDS011;47592;45.904;8.978;2023-12-29T07:46:03;12.98;;;8.13;;
61685;SDS011;47592;45.904;8.978;2023-12-29T07:48:31;12.40;;;7.95;;
61685;SDS011;47592;45.904;8.978;2023-12-29T07:50:56;13.40;;;8.20;;
61685;SDS011;47592;45.904;8.978;2023-12-29T07:53:23;11.93;;;8.05;;
61685;SDS011;47592;45.904;8.978;2023-12-29T07:55:49;13.20;;;7.78;;
61685;SDS011;47592;45.904;8.978;2023-12-29T07:58:15;11.20;;;7.53;;
61685;SDS011;47592;45.904;8.978;2023-12-29T08:00:43;11.85;;;8.18;;
61685;SDS011;47592;45.904;8.978;2023-12-29T08:03:10;11.88;;;7.90;;
61685;SDS011;47592;45.904;8.978;2023-12-29T08:05:36;14.02;;;7.03;;
61685;SDS011;47592;45.904;8.978;2023-12-29T08:08:01;10.45;;;7.07;;
61685;SDS011;47592;45.904;8.978;2023-12-29T08:10:29;10.13;;;6.63;;
61685;SDS011;47592;45.904;8.978;2023-12-29T08:12:57;12.00;;;7.22;;
61685;SDS011;47592;45.904;8.978;2023-12-29T08:15:22;11.48;;;7.63;;
61685;SDS011;47592;45.904;8.978;2023-12-29T08:17:50;10.23;;;7.45;;
61685;SDS011;47592;45.904;8.978;2023-12-29T08:20:15;13.00;;;9.30;;
61685;SDS011;47592;45.904;8.978;2023-12-29T08:22:41;12.32;;;8.20;;
61685;SDS011;47592;45.904;8.978;2023-12-29T08:25:07;12.45;;;7.60;;
61685;SDS011;47592;45.904;8.978;2023-12-29T08:27:35;11.27;;;7.28;;
61685;SDS011;47592;45.904;8.978;2023-12-29T08:30:00;11.50;;;7.78;;
61685;SDS011;47592;45.904;8.978;2023-12-29T08:32:25;14.02;;;9.48;;
61685;SDS011;47592;45.904;8.978;2023-12-29T08:34:53;14.00;;;9.25;;
61685;SDS011;47592;45.904;8.978;2023-12-29T08:37:18;14.43;;;8.65;;
61685;SDS011;47592;45.904;8.978;2023-12-29T08:39:45;14.82;;;8.65;;
61685;SDS011;47592;45.904;8.978;2023-12-29T08:42:12;15.98;;;11.05;;
61685;SDS011;47592;45.904;8.978;2023-12-29T08:44:38;14.60;;;9.85;;
61685;SDS011;47592;45.904;8.978;2023-12-29T08:47:03;15.98;;;10.20;;
61685;SDS011;47592;45.904;8.978;2023-12-29T08:49:35;21.48;;;13.45;;
61685;SDS011;47592;45.904;8.978;2023-12-29T08:52:01;20.52;;;12.88;;
61685;SDS011;47592;45.904;8.978;2023-12-29T08:54:26;19.42;;;11.60;;
61685;SDS011;47592;45.904;8.978;2023-12-29T08:56:54;15.60;;;10.25;;
61685;SDS011;47592;45.904;8.978;2023-12-29T08:59:19;16.38;;;9.05;;
61685;SDS011;47592;45.904;8.978;2023-12-29T09:01:45;15.40;;;10.57;;
61685;SDS011;47592;45.904;8.978;2023-12-29T09:04:10;14.07;;;9.57;;
61685;SDS011;47592;45.904;8.978;2023-12-29T09:06:38;13.10;;;8.20;;
61685;SDS011;47592;45.904;8.978;2023-12-29T09:09:06;11.32;;;7.85;;
61685;SDS011;47592;45.904;8.978;2023-12-29T09:11:38;11.75;;;7.75;;
61685;SDS011;47592;45.904;8.978;2023-12-29T09:14:09;12.98;;;8.15;;
61685;SDS011;47592;45.904;8.978;2023-12-29T09:16:37;12.48;;;8.52;;
61685;SDS011;47592;45.904;8.978;2023-12-29T09:19:05;18.42;;;10.88;;
61685;SDS011;47592;45.904;8.978;2023-12-29T09:21:30;15.20;;;10.63;;
61685;SDS011;47592;45.904;8.978;2023-12-29T09:23:56;13.25;;;9.27;;
61685;SDS011;47592;45.904;8.978;2023-12-29T09:26:21;13.15;;;7.95;;
61685;SDS011;47592;45.904;8.978;2023-12-29T09:28:47;12.65;;;8.18;;
61685;SDS011;47592;45.904;8.978;2023-12-29T09:31:12;11.43;;;7.85;;
61685;SDS011;47592;45.904;8.978;2023-12-29T09:33:38;12.43;;;8.30;;
61685;SDS011;47592;45.904;8.978;2023-12-29T09:36:03;10.25;;;7.70;;
61685;SDS011;47592;45.904;8.978;2023-12-29T09:38:29;12.18;;;7.97;;
61685;SDS011;47592;45.904;8.978;2023-12-29T09:40:57;11.77;;;7.93;;
61685;SDS011;47592;45.904;8.978;2023-12-29T09:43:29;10.23;;;6.68;;
61685;SDS011;47592;45.904;8.978;2023-12-29T09:45:56;12.93;;;7.50;;
61685;SDS011;47592;45.904;8.978;2023-12-29T09:48:22;11.82;;;7.22;;
61685;SDS011;47592;45.904;8.978;2023-12-29T09:50:51;10.80;;;6.72;;
61685;SDS011;47592;45.904;8.978;2023-12-29T09:53:17;12.13;;;6.82;;
61685;SDS011;47592;45.904;8.978;2023-12-29T09:55:44;9.80;;;6.43;;
61685;SDS011;47592;45.904;8.978;2023-12-29T09:58:11;13.55;;;7.85;;
61685;SDS011;47592;45.904;8.978;2023-12-29T10:00:43;12.38;;;7.38;;
61685;SDS011;47592;45.904;8.978;2023-12-29T10:03:08;12.20;;;7.68;;
61685;SDS011;47592;45.904;8.978;2023-12-29T10:05:35;10.57;;;7.60;;
61685;SDS011;47592;45.904;8.978;2023-12-29T10:08:02;11.20;;;7.40;;
61685;SDS011;47592;45.904;8.978;2023-12-29T10:10:30;11.70;;;7.88;;
61685;SDS011;47592;45.904;8.978;2023-12-29T10:12:56;12.82;;;8.13;;
61685;SDS011;47592;45.904;8.978;2023-12-29T10:18:32;11.48;;;7.72;;
61685;SDS011;47592;45.904;8.978;2023-12-29T10:23:47;11.98;;;7.85;;
61685;SDS011;47592;45.904;8.978;2023-12-29T10:26:17;11.93;;;7.50;;
61685;SDS011;47592;45.904;8.978;2023-12-29T10:28:43;13.25;;;7.22;;
61685;SDS011;47592;45.904;8.978;2023-12-29T10:31:09;12.70;;;7.68;;
61685;SDS011;47592;45.904;8.978;2023-12-29T10:33:37;11.73;;;7.13;;
61685;SDS011;47592;45.904;8.978;2023-12-29T10:36:03;12.75;;;7.35;;
61685;SDS011;47592;45.904;8.978;2023-12-29T10:38:30;11.00;;;7.43;;
61685;SDS011;47592;45.904;8.978;2023-12-29T10:41:13;11.52;;;7.43;;
61685;SDS011;47592;45.904;8.978;2023-12-29T10:43:41;9.45;;;6.43;;
61685;SDS011;47592;45.904;8.978;2023-12-29T10:46:07;11.23;;;7.07;;
61685;SDS011;47592;45.904;8.978;2023-12-29T10:48:34;12.95;;;7.05;;
61685;SDS011;47592;45.904;8.978;2023-12-29T10:51:04;11.27;;;6.93;;
61685;SDS011;47592;45.904;8.978;2023-12-29T10:53:36;11.13;;;6.87;;
61685;SDS011;47592;45.904;8.978;2023-12-29T10:56:05;11.15;;;6.85;;
61685;SDS011;47592;45.904;8.978;2023-12-29T10:58:44;11.25;;;6.70;;
61685;SDS011;47592;45.904;8.978;2023-12-29T11:01:16;9.77;;;6.18;;
61685;SDS011;47592;45.904;8.978;2023-12-29T11:03:44;9.23;;;5.82;;
61685;SDS011;47592;45.904;8.978;2023-12-29T11:06:11;8.75;;;6.00;;
61685;SDS011;47592;45.904;8.978;2023-12-29T11:08:39;8.65;;;5.45;;
61685;SDS011;47592;45.904;8.978;2023-12-29T11:11:04;10.43;;;6.03;;
61685;SDS011;47592;45.904;8.978;2023-12-29T11:13:30;9.35;;;5.90;;
61685;SDS011;47592;45.904;8.978;2023-12-29T11:15:58;9.60;;;6.18;;
61685;SDS011;47592;45.904;8.978;2023-12-29T11:18:26;10.48;;;6.18;;
61685;SDS011;47592;45.904;8.978;2023-12-29T11:20:52;10.48;;;5.88;;
61685;SDS011;47592;45.904;8.978;2023-12-29T11:23:18;9.93;;;6.55;;
61685;SDS011;47592;45.904;8.978;2023-12-29T11:25:44;10.07;;;6.25;;
61685;SDS011;47592;45.904;8.978;2023-12-29T11:30:38;11.48;;;6.70;;
61685;SDS011;47592;45.904;8.978;2023-12-29T11:35:55;11.18;;;5.95;;
61685;SDS011;47592;45.904;8.978;2023-12-29T11:41:35;10.32;;;6.90;;
61685;SDS011;47592;45.904;8.978;2023-12-29T11:44:02;9.52;;;6.13;;
61685;SDS011;47592;45.904;8.978;2023-12-29T11:49:02;10.85;;;6.53;;
61685;SDS011;47592;45.904;8.978;2023-12-29T11:51:44;8.52;;;5.22;;
61685;SDS011;47592;45.904;8.978;2023-12-29T11:54:10;9.05;;;6.25;;
61685;SDS011;47592;45.904;8.978;2023-12-29T11:56:46;12.07;;;6.85;;
61685;SDS011;47592;45.904;8.978;2023-12-29T11:59:15;8.18;;;5.75;;
61685;SDS011;47592;45.904;8.978;2023-12-29T12:01:43;10.82;;;6.22;;
61685;SDS011;47592;45.904;8.978;2023-12-29T12:09:47;10.60;;;6.30;;
61685;SDS011;47592;45.904;8.978;2023-12-29T12:15:03;10.38;;;6.53;;
61685;SDS011;47592;45.904;8.978;2023-12-29T12:17:30;12.55;;;6.85;;
61685;SDS011;47592;45.904;8.978;2023-12-29T12:19:57;12.25;;;6.40;;
61685;SDS011;47592;45.904;8.978;2023-12-29T12:22:29;11.18;;;6.03;;
61685;SDS011;47592;45.904;8.978;2023-12-29T12:24:56;10.15;;;6.93;;
61685;SDS011;47592;45.904;8.978;2023-12-29T12:27:23;10.23;;;6.60;;
61685;SDS011;47592;45.904;8.978;2023-12-29T12:29:54;10.13;;;6.53;;
61685;SDS011;47592;45.904;8.978;2023-12-29T12:32:27;10.60;;;7.20;;
61685;SDS011;47592;45.904;8.978;2023-12-29T12:37:23;10.55;;;6.63;;
61685;SDS011;47592;45.904;8.978;2023-12-29T12:39:50;10.77;;;7.03;;
61685;SDS011;47592;45.904;8.978;2023-12-29T12:42:16;10.50;;;7.05;;
61685;SDS011;47592;45.904;8.978;2023-12-29T12:44:49;10.82;;;6.93;;
61685;SDS011;47592;45.904;8.978;2023-12-29T12:47:24;10.07;;;6.65;;
61685;SDS011;47592;45.904;8.978;2023-12-29T12:49:52;11.15;;;7.55;;
61685;SDS011;47592;45.904;8.978;2023-12-29T12:52:17;10.95;;;7.18;;
61685;SDS011;47592;45.904;8.978;2023-12-29T12:54:43;10.15;;;6.85;;
61685;SDS011;47592;45.904;8.978;2023-12-29T12:57:11;14.00;;;7.28;;
61685;SDS011;47592;45.904;8.978;2023-12-29T12:59:36;10.52;;;6.72;;
61685;SDS011;47592;45.904;8.978;2023-12-29T13:02:04;11.65;;;7.10;;
61685;SDS011;47592;45.904;8.978;2023-12-29T13:04:31;10.80;;;7.00;;
61685;SDS011;47592;45.904;8.978;2023-12-29T13:06:56;10.13;;;6.97;;
61685;SDS011;47592;45.904;8.978;2023-12-29T13:09:22;10.55;;;7.20;;
61685;SDS011;47592;45.904;8.978;2023-12-29T13:11:47;11.05;;;6.88;;
61685;SDS011;47592;45.904;8.978;2023-12-29T13:14:22;11.55;;;7.10;;
61685;SDS011;47592;45.904;8.978;2023-12-29T13:16:48;12.73;;;7.50;;
61685;SDS011;47592;45.904;8.978;2023-12-29T13:19:20;10.77;;;7.43;;
61685;SDS011;47592;45.904;8.978;2023-12-29T13:21:48;12.20;;;6.90;;
61685;SDS011;47592;45.904;8.978;2023-12-29T13:24:21;10.88;;;6.90;;
61685;SDS011;47592;45.904;8.978;2023-12-29T13:26:47;11.38;;;7.00;;
61685;SDS011;47592;45.904;8.978;2023-12-29T13:31:42;9.80;;;6.50;;
61685;SDS011;47592;45.904;8.978;2023-12-29T13:34:15;14.40;;;6.95;;
61685;SDS011;47592;45.904;8.978;2023-12-29T13:36:50;10.80;;;6.65;;
61685;SDS011;47592;45.904;8.978;2023-12-29T13:42:04;13.98;;;7.65;;
61685;SDS011;47592;45.904;8.978;2023-12-29T13:44:31;10.75;;;7.07;;
61685;SDS011;47592;45.904;8.978;2023-12-29T13:46:59;11.38;;;6.93;;
61685;SDS011;47592;45.904;8.978;2023-12-29T13:49:25;10.35;;;6.82;;
61685;SDS011;47592;45.904;8.978;2023-12-29T13:51:53;11.93;;;6.95;;
61685;SDS011;47592;45.904;8.978;2023-12-29T13:54:21;12.23;;;7.00;;
61685;SDS011;47592;45.904;8.978;2023-12-29T13:56:53;10.45;;;7.25;;
61685;SDS011;47592;45.904;8.978;2023-12-29T13:59:29;10.40;;;6.93;;
61685;SDS011;47592;45.904;8.978;2023-12-29T14:01:58;10.90;;;7.40;;
61685;SDS011;47592;45.904;8.978;2023-12-29T14:04:28;9.63;;;6.95;;
61685;SDS011;47592;45.904;8.978;2023-12-29T14:06:59;11.07;;;7.05;;
61685;SDS011;47592;45.904;8.978;2023-12-29T14:09:26;11.15;;;6.78;;
61685;SDS011;47592;45.904;8.978;2023-12-29T14:11:57;11.57;;;7.80;;
61685;SDS011;47592;45.904;8.978;2023-12-29T14:14:24;11.38;;;7.18;;
61685;SDS011;47592;45.904;8.978;2023-12-29T14:16:53;11.38;;;7.00;;
61685;SDS011;47592;45.904;8.978;2023-12-29T14:19:19;12.47;;;7.13;;
61685;SDS011;47592;45.904;8.978;2023-12-29T14:21:45;9.80;;;6.20;;
61685;SDS011;47592;45.904;8.978;2023-12-29T14:24:16;13.18;;;6.50;;
61685;SDS011;47592;45.904;8.978;2023-12-29T14:26:54;9.77;;;6.63;;
61685;SDS011;47592;45.904;8.978;2023-12-29T14:29:21;11.63;;;7.43;;
61685;SDS011;47592;45.904;8.978;2023-12-29T14:31:49;11.02;;;6.80;;
61685;SDS011;47592;45.904;8.978;2023-12-29T14:34:21;11.13;;;7.10;;
61685;SDS011;47592;45.904;8.978;2023-12-29T14:36:49;10.60;;;7.03;;
61685;SDS011;47592;45.904;8.978;2023-12-29T14:39:14;11.13;;;7.07;;
61685;SDS011;47592;45.904;8.978;2023-12-29T14:41:41;11.20;;;7.05;;
61685;SDS011;47592;45.904;8.978;2023-12-29T14:44:07;9.70;;;6.70;;
61685;SDS011;47592;45.904;8.978;2023-12-29T14:46:37;11.65;;;7.07;;
61685;SDS011;47592;45.904;8.978;2023-12-29T14:49:09;10.40;;;6.88;;
61685;SDS011;47592;45.904;8.978;2023-12-29T14:51:39;10.77;;;7.05;;
61685;SDS011;47592;45.904;8.978;2023-12-29T14:54:09;11.05;;;6.82;;
61685;SDS011;47592;45.904;8.978;2023-12-29T14:56:37;11.15;;;7.03;;
61685;SDS011;47592;45.904;8.978;2023-12-29T14:59:04;11.45;;;7.40;;
61685;SDS011;47592;45.904;8.978;2023-12-29T15:01:30;12.07;;;7.32;;
61685;SDS011;47592;45.904;8.978;2023-12-29T15:03:55;11.90;;;8.00;;
61685;SDS011;47592;45.904;8.978;2023-12-29T15:06:20;11.70;;;7.13;;
61685;SDS011;47592;45.904;8.978;2023-12-29T15:08:46;11.05;;;8.00;;